sensor_id;sensor_type;location;lat;lon;timestamp;P1;durP1;ratioP1;P2;durP2;ratioP2
29314;SDS011;16320;53.954;9.506;2023-05-31T00:01:24;14.00;;;7.30;;
29314;SDS011;16320;53.954;9.506;2023-05-31T00:04:29;15.00;;;8.57;;
29314;SDS011;16320;53.954;9.506;2023-05-31T00:07:33;13.23;;;7.10;;
29314;SDS011;16320;53.954;9.506;2023-05-31T00:10:37;17.05;;;8.13;;
29314;SDS011;16320;53.954;9.506;2023-05-31T00:13:42;12.55;;;8.25;;
29314;SDS011;16320;53.954;9.506;2023-05-31T00:16:46;20.92;;;9.32;;
29314;SDS011;16320;53.954;9.506;2023-05-31T00:20:11;14.40;;;8.27;;
29314;SDS011;16320;53.954;9.506;2023-05-31T00:23:16;17.13;;;8.15;;
29314;SDS011;16320;53.954;9.506;2023-05-31T00:26:20;13.85;;;7.75;;
29314;SDS011;16320;53.954;9.506;2023-05-31T00:29:26;16.50;;;8.23;;
29314;SDS011;16320;53.954;9.506;2023-05-31T00:32:30;15.05;;;7.80;;
29314;SDS011;16320;53.954;9.506;2023-05-31T00:35:35;15.05;;;8.20;;
29314;SDS011;16320;53.954;9.506;2023-05-31T00:38:39;15.60;;;8.80;;
29314;SDS011;16320;53.954;9.506;2023-05-31T00:41:44;20.80;;;8.45;;
29314;SDS011;16320;53.954;9.506;2023-05-31T00:44:48;19.77;;;9.07;;
29314;SDS011;16320;53.954;9.506;2023-05-31T00:47:53;18.20;;;8.60;;
29314;SDS011;16320;53.954;9.506;2023-05-31T00:50:58;19.35;;;9.55;;
29314;SDS011;16320;53.954;9.506;2023-05-31T00:54:03;19.10;;;10.05;;
29314;SDS011;16320;53.954;9.506;2023-05-31T00:57:09;26.23;;;10.45;;
29314;SDS011;16320;53.954;9.506;2023-05-31T01:00:14;22.25;;;10.23;;
29314;SDS011;16320;53.954;9.506;2023-05-31T01:03:19;22.88;;;9.77;;
29314;SDS011;16320;53.954;9.506;2023-05-31T01:06:24;21.17;;;10.10;;
29314;SDS011;16320;53.954;9.506;2023-05-31T01:09:28;21.67;;;9.77;;
29314;SDS011;16320;53.954;9.506;2023-05-31T01:16:09;16.23;;;9.32;;
29314;SDS011;16320;53.954;9.506;2023-05-31T01:19:56;23.10;;;10.38;;
29314;SDS011;16320;53.954;9.506;2023-05-31T01:26:25;20.83;;;10.20;;
29314;SDS011;16320;53.954;9.506;2023-05-31T01:29:47;21.92;;;10.38;;
29314;SDS011;16320;53.954;9.506;2023-05-31T01:32:53;21.50;;;9.88;;
29314;SDS011;16320;53.954;9.506;2023-05-31T01:36:00;19.33;;;10.85;;
29314;SDS011;16320;53.954;9.506;2023-05-31T01:39:07;19.52;;;10.80;;
29314;SDS011;16320;53.954;9.506;2023-05-31T01:42:13;20.15;;;11.13;;
29314;SDS011;16320;53.954;9.506;2023-05-31T01:45:19;20.20;;;11.50;;
29314;SDS011;16320;53.954;9.506;2023-05-31T01:48:24;29.15;;;12.38;;
29314;SDS011;16320;53.954;9.506;2023-05-31T01:51:30;21.00;;;11.80;;
29314;SDS011;16320;53.954;9.506;2023-05-31T01:54:40;23.15;;;11.40;;
29314;SDS011;16320;53.954;9.506;2023-05-31T01:57:45;18.55;;;11.85;;
29314;SDS011;16320;53.954;9.506;2023-05-31T02:00:50;24.77;;;13.20;;
29314;SDS011;16320;53.954;9.506;2023-05-31T02:03:55;29.55;;;13.05;;
29314;SDS011;16320;53.954;9.506;2023-05-31T02:07:00;22.55;;;13.77;;
29314;SDS011;16320;53.954;9.506;2023-05-31T02:10:05;25.58;;;13.70;;
29314;SDS011;16320;53.954;9.506;2023-05-31T02:13:10;29.48;;;14.10;;
29314;SDS011;16320;53.954;9.506;2023-05-31T02:16:14;27.50;;;13.95;;
29314;SDS011;16320;53.954;9.506;2023-05-31T02:19:20;26.75;;;14.15;;
29314;SDS011;16320;53.954;9.506;2023-05-31T02:22:29;29.35;;;14.10;;
29314;SDS011;16320;53.954;9.506;2023-05-31T02:25:33;29.60;;;14.23;;
29314;SDS011;16320;53.954;9.506;2023-05-31T02:28:37;23.45;;;13.02;;
29314;SDS011;16320;53.954;9.506;2023-05-31T02:31:42;27.08;;;12.75;;
29314;SDS011;16320;53.954;9.506;2023-05-31T02:34:46;31.42;;;14.35;;
29314;SDS011;16320;53.954;9.506;2023-05-31T02:37:51;27.17;;;12.98;;
29314;SDS011;16320;53.954;9.506;2023-05-31T02:40:55;25.58;;;13.27;;
29314;SDS011;16320;53.954;9.506;2023-05-31T02:44:00;28.48;;;13.20;;
29314;SDS011;16320;53.954;9.506;2023-05-31T02:47:04;24.25;;;11.68;;
29314;SDS011;16320;53.954;9.506;2023-05-31T02:50:09;24.77;;;11.35;;
29314;SDS011;16320;53.954;9.506;2023-05-31T02:53:14;21.10;;;11.00;;
29314;SDS011;16320;53.954;9.506;2023-05-31T02:56:19;23.63;;;11.30;;
29314;SDS011;16320;53.954;9.506;2023-05-31T02:59:24;29.13;;;11.35;;
29314;SDS011;16320;53.954;9.506;2023-05-31T03:02:29;23.15;;;10.75;;
29314;SDS011;16320;53.954;9.506;2023-05-31T03:05:33;21.42;;;11.02;;
29314;SDS011;16320;53.954;9.506;2023-05-31T03:08:38;25.55;;;11.10;;
29314;SDS011;16320;53.954;9.506;2023-05-31T03:11:43;22.17;;;11.25;;
29314;SDS011;16320;53.954;9.506;2023-05-31T03:14:48;22.20;;;10.90;;
29314;SDS011;16320;53.954;9.506;2023-05-31T03:17:52;22.80;;;10.35;;
29314;SDS011;16320;53.954;9.506;2023-05-31T03:20:57;20.40;;;10.50;;
29314;SDS011;16320;53.954;9.506;2023-05-31T03:24:01;20.27;;;9.38;;
29314;SDS011;16320;53.954;9.506;2023-05-31T03:27:06;24.73;;;10.25;;
29314;SDS011;16320;53.954;9.506;2023-05-31T03:30:11;19.80;;;10.75;;
29314;SDS011;16320;53.954;9.506;2023-05-31T03:33:16;19.85;;;10.07;;
29314;SDS011;16320;53.954;9.506;2023-05-31T03:36:21;24.85;;;9.40;;
29314;SDS011;16320;53.954;9.506;2023-05-31T03:39:26;20.33;;;9.82;;
29314;SDS011;16320;53.954;9.506;2023-05-31T03:42:30;22.27;;;8.98;;
29314;SDS011;16320;53.954;9.506;2023-05-31T03:45:35;18.38;;;9.23;;
29314;SDS011;16320;53.954;9.506;2023-05-31T03:48:39;16.63;;;8.98;;
29314;SDS011;16320;53.954;9.506;2023-05-31T03:51:44;16.83;;;7.75;;
29314;SDS011;16320;53.954;9.506;2023-05-31T03:54:49;14.60;;;7.97;;
29314;SDS011;16320;53.954;9.506;2023-05-31T03:57:53;16.63;;;8.27;;
29314;SDS011;16320;53.954;9.506;2023-05-31T04:00:58;17.63;;;7.78;;
29314;SDS011;16320;53.954;9.506;2023-05-31T04:04:03;15.50;;;7.85;;
29314;SDS011;16320;53.954;9.506;2023-05-31T04:07:08;15.85;;;8.23;;
29314;SDS011;16320;53.954;9.506;2023-05-31T04:10:12;11.60;;;6.88;;
29314;SDS011;16320;53.954;9.506;2023-05-31T04:13:16;11.70;;;6.10;;
29314;SDS011;16320;53.954;9.506;2023-05-31T04:16:21;15.40;;;6.43;;
29314;SDS011;16320;53.954;9.506;2023-05-31T04:19:29;12.52;;;6.75;;
29314;SDS011;16320;53.954;9.506;2023-05-31T04:22:34;12.98;;;5.82;;
29314;SDS011;16320;53.954;9.506;2023-05-31T04:25:41;13.07;;;5.72;;
29314;SDS011;16320;53.954;9.506;2023-05-31T04:28:48;19.60;;;5.50;;
29314;SDS011;16320;53.954;9.506;2023-05-31T04:31:55;12.27;;;5.53;;
29314;SDS011;16320;53.954;9.506;2023-05-31T04:35:03;10.43;;;5.38;;
29314;SDS011;16320;53.954;9.506;2023-05-31T04:38:12;11.38;;;5.38;;
29314;SDS011;16320;53.954;9.506;2023-05-31T04:41:18;17.02;;;5.75;;
29314;SDS011;16320;53.954;9.506;2023-05-31T04:44:24;8.57;;;5.18;;
29314;SDS011;16320;53.954;9.506;2023-05-31T04:47:33;10.40;;;4.88;;
29314;SDS011;16320;53.954;9.506;2023-05-31T04:50:37;9.65;;;5.10;;
29314;SDS011;16320;53.954;9.506;2023-05-31T04:53:43;12.68;;;4.70;;
29314;SDS011;16320;53.954;9.506;2023-05-31T04:56:51;10.95;;;4.50;;
29314;SDS011;16320;53.954;9.506;2023-05-31T04:59:55;13.20;;;5.28;;
29314;SDS011;16320;53.954;9.506;2023-05-31T05:03:02;14.65;;;5.82;;
29314;SDS011;16320;53.954;9.506;2023-05-31T05:06:14;12.73;;;6.05;;
29314;SDS011;16320;53.954;9.506;2023-05-31T05:09:20;10.98;;;5.53;;
29314;SDS011;16320;53.954;9.506;2023-05-31T05:12:24;10.10;;;5.32;;
29314;SDS011;16320;53.954;9.506;2023-05-31T05:15:29;11.15;;;5.28;;
29314;SDS011;16320;53.954;9.506;2023-05-31T05:18:33;12.77;;;5.82;;
29314;SDS011;16320;53.954;9.506;2023-05-31T05:21:37;11.90;;;5.30;;
29314;SDS011;16320;53.954;9.506;2023-05-31T05:24:42;12.25;;;5.43;;
29314;SDS011;16320;53.954;9.506;2023-05-31T05:30:51;13.50;;;5.95;;
29314;SDS011;16320;53.954;9.506;2023-05-31T05:33:57;15.60;;;6.18;;
29314;SDS011;16320;53.954;9.506;2023-05-31T05:37:02;16.30;;;7.70;;
29314;SDS011;16320;53.954;9.506;2023-05-31T05:40:06;22.13;;;7.65;;
29314;SDS011;16320;53.954;9.506;2023-05-31T05:43:11;14.02;;;6.25;;
29314;SDS011;16320;53.954;9.506;2023-05-31T05:46:16;17.23;;;6.90;;
29314;SDS011;16320;53.954;9.506;2023-05-31T05:49:20;13.93;;;6.18;;
29314;SDS011;16320;53.954;9.506;2023-05-31T05:52:25;12.13;;;7.15;;
29314;SDS011;16320;53.954;9.506;2023-05-31T05:55:29;21.70;;;9.13;;
29314;SDS011;16320;53.954;9.506;2023-05-31T05:58:34;15.43;;;8.40;;
29314;SDS011;16320;53.954;9.506;2023-05-31T06:01:38;20.35;;;8.73;;
29314;SDS011;16320;53.954;9.506;2023-05-31T06:04:45;17.80;;;9.25;;
29314;SDS011;16320;53.954;9.506;2023-05-31T06:07:50;21.20;;;9.45;;
29314;SDS011;16320;53.954;9.506;2023-05-31T06:10:56;16.92;;;9.57;;
29314;SDS011;16320;53.954;9.506;2023-05-31T06:14:01;15.43;;;8.88;;
29314;SDS011;16320;53.954;9.506;2023-05-31T06:17:05;13.23;;;7.30;;
29314;SDS011;16320;53.954;9.506;2023-05-31T06:20:15;13.27;;;8.45;;
29314;SDS011;16320;53.954;9.506;2023-05-31T06:23:20;15.23;;;5.90;;
29314;SDS011;16320;53.954;9.506;2023-05-31T06:27:27;9.13;;;4.70;;
29314;SDS011;16320;53.954;9.506;2023-05-31T06:30:32;11.68;;;4.75;;
29314;SDS011;16320;53.954;9.506;2023-05-31T06:33:36;11.07;;;5.75;;
29314;SDS011;16320;53.954;9.506;2023-05-31T06:36:41;15.30;;;6.75;;
29314;SDS011;16320;53.954;9.506;2023-05-31T06:39:46;12.00;;;6.70;;
29314;SDS011;16320;53.954;9.506;2023-05-31T06:42:50;13.43;;;6.13;;
29314;SDS011;16320;53.954;9.506;2023-05-31T06:45:54;11.68;;;6.18;;
29314;SDS011;16320;53.954;9.506;2023-05-31T06:48:59;13.88;;;5.65;;
29314;SDS011;16320;53.954;9.506;2023-05-31T06:52:15;10.57;;;5.70;;
29314;SDS011;16320;53.954;9.506;2023-05-31T06:55:20;14.00;;;6.03;;
29314;SDS011;16320;53.954;9.506;2023-05-31T06:58:26;16.88;;;5.07;;
29314;SDS011;16320;53.954;9.506;2023-05-31T07:01:35;12.88;;;4.88;;
29314;SDS011;16320;53.954;9.506;2023-05-31T07:04:39;12.73;;;4.97;;
29314;SDS011;16320;53.954;9.506;2023-05-31T07:07:46;8.70;;;4.78;;
29314;SDS011;16320;53.954;9.506;2023-05-31T07:10:51;9.60;;;4.65;;
29314;SDS011;16320;53.954;9.506;2023-05-31T07:13:55;13.30;;;4.97;;
29314;SDS011;16320;53.954;9.506;2023-05-31T07:17:06;12.48;;;5.03;;
29314;SDS011;16320;53.954;9.506;2023-05-31T07:20:10;23.08;;;5.45;;
29314;SDS011;16320;53.954;9.506;2023-05-31T07:23:15;11.50;;;3.63;;
29314;SDS011;16320;53.954;9.506;2023-05-31T07:32:28;10.43;;;4.10;;
29314;SDS011;16320;53.954;9.506;2023-05-31T07:35:33;10.15;;;3.90;;
29314;SDS011;16320;53.954;9.506;2023-05-31T07:38:38;19.40;;;4.97;;
29314;SDS011;16320;53.954;9.506;2023-05-31T07:41:42;13.27;;;4.55;;
29314;SDS011;16320;53.954;9.506;2023-05-31T07:47:52;11.27;;;3.92;;
29314;SDS011;16320;53.954;9.506;2023-05-31T07:50:57;12.32;;;4.57;;
29314;SDS011;16320;53.954;9.506;2023-05-31T07:54:01;9.02;;;3.85;;
29314;SDS011;16320;53.954;9.506;2023-05-31T07:57:06;7.30;;;3.20;;
29314;SDS011;16320;53.954;9.506;2023-05-31T08:00:12;12.40;;;4.07;;
29314;SDS011;16320;53.954;9.506;2023-05-31T08:03:16;9.73;;;3.53;;
29314;SDS011;16320;53.954;9.506;2023-05-31T08:06:21;8.88;;;3.40;;
29314;SDS011;16320;53.954;9.506;2023-05-31T08:09:26;6.07;;;3.20;;
29314;SDS011;16320;53.954;9.506;2023-05-31T08:12:30;7.32;;;3.20;;
29314;SDS011;16320;53.954;9.506;2023-05-31T08:15:35;7.60;;;3.42;;
29314;SDS011;16320;53.954;9.506;2023-05-31T08:18:40;10.27;;;3.20;;
29314;SDS011;16320;53.954;9.506;2023-05-31T08:21:44;11.00;;;3.08;;
29314;SDS011;16320;53.954;9.506;2023-05-31T08:24:50;8.55;;;3.28;;
29314;SDS011;16320;53.954;9.506;2023-05-31T08:27:55;11.15;;;2.90;;
29314;SDS011;16320;53.954;9.506;2023-05-31T08:30:59;7.70;;;2.30;;
29314;SDS011;16320;53.954;9.506;2023-05-31T08:34:05;5.57;;;2.45;;
29314;SDS011;16320;53.954;9.506;2023-05-31T08:37:10;9.13;;;2.42;;
29314;SDS011;16320;53.954;9.506;2023-05-31T08:40:16;11.35;;;2.83;;
29314;SDS011;16320;53.954;9.506;2023-05-31T08:43:21;7.80;;;2.53;;
29314;SDS011;16320;53.954;9.506;2023-05-31T08:46:25;8.55;;;2.58;;
29314;SDS011;16320;53.954;9.506;2023-05-31T08:49:31;5.72;;;2.30;;
29314;SDS011;16320;53.954;9.506;2023-05-31T08:52:38;8.32;;;2.45;;
29314;SDS011;16320;53.954;9.506;2023-05-31T08:55:44;5.43;;;2.60;;
29314;SDS011;16320;53.954;9.506;2023-05-31T08:58:51;11.93;;;2.75;;
29314;SDS011;16320;53.954;9.506;2023-05-31T09:01:58;4.93;;;1.90;;
29314;SDS011;16320;53.954;9.506;2023-05-31T09:05:07;7.10;;;2.25;;
29314;SDS011;16320;53.954;9.506;2023-05-31T09:08:14;6.82;;;1.85;;
29314;SDS011;16320;53.954;9.506;2023-05-31T09:11:19;4.82;;;2.03;;
29314;SDS011;16320;53.954;9.506;2023-05-31T09:14:24;10.23;;;2.47;;
29314;SDS011;16320;53.954;9.506;2023-05-31T09:17:29;8.13;;;2.30;;
29314;SDS011;16320;53.954;9.506;2023-05-31T09:20:35;9.43;;;2.42;;
29314;SDS011;16320;53.954;9.506;2023-05-31T09:23:53;5.68;;;2.08;;
29314;SDS011;16320;53.954;9.506;2023-05-31T09:26:59;5.93;;;1.88;;
29314;SDS011;16320;53.954;9.506;2023-05-31T09:30:09;6.90;;;1.75;;
29314;SDS011;16320;53.954;9.506;2023-05-31T09:33:17;7.95;;;2.75;;
29314;SDS011;16320;53.954;9.506;2023-05-31T09:36:26;9.43;;;1.75;;
29314;SDS011;16320;53.954;9.506;2023-05-31T09:39:32;7.20;;;1.85;;
29314;SDS011;16320;53.954;9.506;2023-05-31T09:42:37;13.15;;;1.73;;
29314;SDS011;16320;53.954;9.506;2023-05-31T09:45:45;7.75;;;1.60;;
29314;SDS011;16320;53.954;9.506;2023-05-31T09:52:13;4.63;;;1.20;;
29314;SDS011;16320;53.954;9.506;2023-05-31T09:55:17;7.63;;;1.15;;
29314;SDS011;16320;53.954;9.506;2023-05-31T09:58:27;6.95;;;1.60;;
29314;SDS011;16320;53.954;9.506;2023-05-31T10:01:35;2.90;;;1.35;;
29314;SDS011;16320;53.954;9.506;2023-05-31T10:04:40;6.93;;;1.40;;
29314;SDS011;16320;53.954;9.506;2023-05-31T10:07:49;8.13;;;1.80;;
29314;SDS011;16320;53.954;9.506;2023-05-31T10:10:55;6.20;;;1.55;;
29314;SDS011;16320;53.954;9.506;2023-05-31T10:14:48;7.55;;;1.80;;
29314;SDS011;16320;53.954;9.506;2023-05-31T10:17:33;6.80;;;1.60;;
29314;SDS011;16320;53.954;9.506;2023-05-31T10:20:51;3.78;;;1.52;;
29314;SDS011;16320;53.954;9.506;2023-05-31T10:27:12;5.20;;;1.55;;
29314;SDS011;16320;53.954;9.506;2023-05-31T10:30:34;7.10;;;1.60;;
29314;SDS011;16320;53.954;9.506;2023-05-31T10:33:43;5.97;;;1.55;;
29314;SDS011;16320;53.954;9.506;2023-05-31T10:36:57;6.72;;;1.88;;
29314;SDS011;16320;53.954;9.506;2023-05-31T10:40:04;3.38;;;1.45;;
29314;SDS011;16320;53.954;9.506;2023-05-31T10:43:27;6.78;;;1.40;;
29314;SDS011;16320;53.954;9.506;2023-05-31T10:46:43;6.05;;;1.63;;
29314;SDS011;16320;53.954;9.506;2023-05-31T10:49:56;6.03;;;1.90;;
29314;SDS011;16320;53.954;9.506;2023-05-31T10:53:11;8.98;;;1.90;;
29314;SDS011;16320;53.954;9.506;2023-05-31T10:56:16;6.25;;;1.65;;
29314;SDS011;16320;53.954;9.506;2023-05-31T10:59:22;7.07;;;1.40;;
29314;SDS011;16320;53.954;9.506;2023-05-31T11:02:29;8.60;;;1.95;;
29314;SDS011;16320;53.954;9.506;2023-05-31T11:08:37;4.93;;;1.55;;
29314;SDS011;16320;53.954;9.506;2023-05-31T11:11:43;6.03;;;1.77;;
29314;SDS011;16320;53.954;9.506;2023-05-31T11:14:59;8.60;;;1.48;;
29314;SDS011;16320;53.954;9.506;2023-05-31T11:18:06;6.68;;;1.30;;
29314;SDS011;16320;53.954;9.506;2023-05-31T11:24:56;9.15;;;1.35;;
29314;SDS011;16320;53.954;9.506;2023-05-31T11:28:05;3.47;;;1.30;;
29314;SDS011;16320;53.954;9.506;2023-05-31T11:31:14;4.80;;;1.73;;
29314;SDS011;16320;53.954;9.506;2023-05-31T11:37:33;7.47;;;1.75;;
29314;SDS011;16320;53.954;9.506;2023-05-31T11:40:42;4.03;;;1.45;;
29314;SDS011;16320;53.954;9.506;2023-05-31T11:43:53;5.32;;;1.75;;
29314;SDS011;16320;53.954;9.506;2023-05-31T11:47:03;3.97;;;1.60;;
29314;SDS011;16320;53.954;9.506;2023-05-31T11:50:12;6.88;;;2.20;;
29314;SDS011;16320;53.954;9.506;2023-05-31T11:53:20;4.95;;;2.08;;
29314;SDS011;16320;53.954;9.506;2023-05-31T11:56:31;9.38;;;2.15;;
29314;SDS011;16320;53.954;9.506;2023-05-31T11:59:40;4.40;;;1.77;;
29314;SDS011;16320;53.954;9.506;2023-05-31T12:02:48;3.47;;;1.60;;
29314;SDS011;16320;53.954;9.506;2023-05-31T12:05:57;3.50;;;1.63;;
29314;SDS011;16320;53.954;9.506;2023-05-31T12:09:07;3.05;;;1.35;;
29314;SDS011;16320;53.954;9.506;2023-05-31T12:12:12;8.98;;;1.90;;
29314;SDS011;16320;53.954;9.506;2023-05-31T12:15:17;6.50;;;2.03;;
29314;SDS011;16320;53.954;9.506;2023-05-31T12:18:21;4.95;;;1.40;;
29314;SDS011;16320;53.954;9.506;2023-05-31T12:21:26;8.40;;;1.55;;
29314;SDS011;16320;53.954;9.506;2023-05-31T12:24:30;6.45;;;1.92;;
29314;SDS011;16320;53.954;9.506;2023-05-31T12:27:34;9.07;;;2.00;;
29314;SDS011;16320;53.954;9.506;2023-05-31T12:30:48;7.47;;;2.13;;
29314;SDS011;16320;53.954;9.506;2023-05-31T12:37:10;9.15;;;1.83;;
29314;SDS011;16320;53.954;9.506;2023-05-31T12:40:16;12.45;;;2.95;;
29314;SDS011;16320;53.954;9.506;2023-05-31T12:43:28;9.10;;;1.90;;
29314;SDS011;16320;53.954;9.506;2023-05-31T12:46:38;6.22;;;1.95;;
29314;SDS011;16320;53.954;9.506;2023-05-31T12:49:45;6.97;;;2.22;;
29314;SDS011;16320;53.954;9.506;2023-05-31T12:52:56;6.55;;;2.05;;
29314;SDS011;16320;53.954;9.506;2023-05-31T12:56:01;6.53;;;2.08;;
29314;SDS011;16320;53.954;9.506;2023-05-31T13:02:10;9.10;;;2.78;;
29314;SDS011;16320;53.954;9.506;2023-05-31T13:05:15;9.07;;;3.00;;
29314;SDS011;16320;53.954;9.506;2023-05-31T13:08:19;8.20;;;2.30;;
29314;SDS011;16320;53.954;9.506;2023-05-31T13:11:23;8.02;;;2.72;;
29314;SDS011;16320;53.954;9.506;2023-05-31T13:17:31;8.77;;;2.50;;
29314;SDS011;16320;53.954;9.506;2023-05-31T13:20:37;6.95;;;1.67;;
29314;SDS011;16320;53.954;9.506;2023-05-31T13:23:42;6.00;;;2.17;;
29314;SDS011;16320;53.954;9.506;2023-05-31T13:26:47;4.72;;;2.00;;
29314;SDS011;16320;53.954;9.506;2023-05-31T13:29:51;7.78;;;2.28;;
29314;SDS011;16320;53.954;9.506;2023-05-31T13:32:56;11.07;;;2.30;;
29314;SDS011;16320;53.954;9.506;2023-05-31T13:36:01;5.25;;;2.17;;
29314;SDS011;16320;53.954;9.506;2023-05-31T13:39:06;6.93;;;2.72;;
29314;SDS011;16320;53.954;9.506;2023-05-31T13:42:10;6.97;;;1.90;;
29314;SDS011;16320;53.954;9.506;2023-05-31T13:45:15;11.02;;;2.65;;
29314;SDS011;16320;53.954;9.506;2023-05-31T13:48:19;8.70;;;2.28;;
29314;SDS011;16320;53.954;9.506;2023-05-31T13:51:24;9.18;;;2.95;;
29314;SDS011;16320;53.954;9.506;2023-05-31T13:54:29;5.45;;;2.63;;
29314;SDS011;16320;53.954;9.506;2023-05-31T14:00:37;15.13;;;3.40;;
29314;SDS011;16320;53.954;9.506;2023-05-31T14:03:48;13.10;;;3.28;;
29314;SDS011;16320;53.954;9.506;2023-05-31T14:06:53;13.95;;;3.20;;
29314;SDS011;16320;53.954;9.506;2023-05-31T14:09:57;8.02;;;3.00;;
29314;SDS011;16320;53.954;9.506;2023-05-31T14:13:01;6.57;;;2.53;;
29314;SDS011;16320;53.954;9.506;2023-05-31T14:16:06;11.70;;;2.67;;
29314;SDS011;16320;53.954;9.506;2023-05-31T14:19:10;6.22;;;2.20;;
29314;SDS011;16320;53.954;9.506;2023-05-31T14:22:15;8.88;;;2.60;;
29314;SDS011;16320;53.954;9.506;2023-05-31T14:25:19;7.05;;;2.70;;
29314;SDS011;16320;53.954;9.506;2023-05-31T14:28:24;14.73;;;2.90;;
29314;SDS011;16320;53.954;9.506;2023-05-31T14:31:28;12.63;;;3.38;;
29314;SDS011;16320;53.954;9.506;2023-05-31T14:34:33;9.57;;;2.50;;
29314;SDS011;16320;53.954;9.506;2023-05-31T14:37:38;8.45;;;3.00;;
29314;SDS011;16320;53.954;9.506;2023-05-31T14:41:05;8.85;;;2.47;;
29314;SDS011;16320;53.954;9.506;2023-05-31T14:44:09;6.20;;;2.35;;
29314;SDS011;16320;53.954;9.506;2023-05-31T14:47:14;9.98;;;2.88;;
29314;SDS011;16320;53.954;9.506;2023-05-31T14:50:18;7.80;;;2.33;;
29314;SDS011;16320;53.954;9.506;2023-05-31T14:53:23;7.70;;;2.58;;
29314;SDS011;16320;53.954;9.506;2023-05-31T14:56:27;13.55;;;3.03;;
29314;SDS011;16320;53.954;9.506;2023-05-31T14:59:32;7.28;;;3.05;;
29314;SDS011;16320;53.954;9.506;2023-05-31T15:02:36;5.88;;;2.72;;
29314;SDS011;16320;53.954;9.506;2023-05-31T15:08:44;8.70;;;3.15;;
29314;SDS011;16320;53.954;9.506;2023-05-31T15:11:49;8.20;;;3.05;;
29314;SDS011;16320;53.954;9.506;2023-05-31T15:14:53;9.73;;;3.63;;
29314;SDS011;16320;53.954;9.506;2023-05-31T15:17:57;10.57;;;3.80;;
29314;SDS011;16320;53.954;9.506;2023-05-31T15:21:04;10.90;;;3.65;;
29314;SDS011;16320;53.954;9.506;2023-05-31T15:24:10;10.52;;;3.22;;
29314;SDS011;16320;53.954;9.506;2023-05-31T15:27:14;8.80;;;3.40;;
29314;SDS011;16320;53.954;9.506;2023-05-31T15:30:19;16.35;;;4.97;;
29314;SDS011;16320;53.954;9.506;2023-05-31T15:33:23;8.20;;;4.22;;
29314;SDS011;16320;53.954;9.506;2023-05-31T15:36:28;10.98;;;4.15;;
29314;SDS011;16320;53.954;9.506;2023-05-31T15:39:33;13.02;;;4.35;;
29314;SDS011;16320;53.954;9.506;2023-05-31T15:42:37;23.13;;;3.80;;
29314;SDS011;16320;53.954;9.506;2023-05-31T15:45:41;15.88;;;4.95;;
29314;SDS011;16320;53.954;9.506;2023-05-31T15:48:46;12.80;;;4.70;;
29314;SDS011;16320;53.954;9.506;2023-05-31T15:51:50;10.90;;;4.30;;
29314;SDS011;16320;53.954;9.506;2023-05-31T15:57:58;16.40;;;5.53;;
29314;SDS011;16320;53.954;9.506;2023-05-31T16:01:04;13.43;;;4.70;;
29314;SDS011;16320;53.954;9.506;2023-05-31T16:04:08;9.75;;;4.22;;
29314;SDS011;16320;53.954;9.506;2023-05-31T16:07:13;15.23;;;4.35;;
29314;SDS011;16320;53.954;9.506;2023-05-31T16:10:18;12.65;;;3.85;;
29314;SDS011;16320;53.954;9.506;2023-05-31T16:13:22;10.55;;;3.95;;
29314;SDS011;16320;53.954;9.506;2023-05-31T16:16:27;10.07;;;3.83;;
29314;SDS011;16320;53.954;9.506;2023-05-31T16:19:31;5.53;;;2.78;;
29314;SDS011;16320;53.954;9.506;2023-05-31T16:22:35;10.57;;;3.53;;
29314;SDS011;16320;53.954;9.506;2023-05-31T16:25:40;8.40;;;3.45;;
29314;SDS011;16320;53.954;9.506;2023-05-31T16:28:46;12.48;;;3.80;;
29314;SDS011;16320;53.954;9.506;2023-05-31T16:31:51;10.68;;;3.40;;
29314;SDS011;16320;53.954;9.506;2023-05-31T16:34:56;11.57;;;3.58;;
29314;SDS011;16320;53.954;9.506;2023-05-31T16:38:00;13.55;;;3.70;;
29314;SDS011;16320;53.954;9.506;2023-05-31T16:41:05;14.38;;;3.70;;
29314;SDS011;16320;53.954;9.506;2023-05-31T16:44:10;14.68;;;4.40;;
29314;SDS011;16320;53.954;9.506;2023-05-31T16:50:19;10.23;;;3.25;;
29314;SDS011;16320;53.954;9.506;2023-05-31T16:53:23;15.18;;;3.33;;
29314;SDS011;16320;53.954;9.506;2023-05-31T16:56:29;20.08;;;3.75;;
29314;SDS011;16320;53.954;9.506;2023-05-31T16:59:34;7.88;;;3.05;;
29314;SDS011;16320;53.954;9.506;2023-05-31T17:02:38;12.75;;;3.33;;
29314;SDS011;16320;53.954;9.506;2023-05-31T17:05:43;7.15;;;3.00;;
29314;SDS011;16320;53.954;9.506;2023-05-31T17:08:48;13.27;;;3.67;;
29314;SDS011;16320;53.954;9.506;2023-05-31T17:11:53;11.00;;;3.28;;
29314;SDS011;16320;53.954;9.506;2023-05-31T17:14:57;10.55;;;3.15;;
29314;SDS011;16320;53.954;9.506;2023-05-31T17:18:03;7.68;;;3.00;;
29314;SDS011;16320;53.954;9.506;2023-05-31T17:21:08;10.20;;;3.03;;
29314;SDS011;16320;53.954;9.506;2023-05-31T17:27:16;14.13;;;3.20;;
29314;SDS011;16320;53.954;9.506;2023-05-31T17:33:29;10.65;;;2.58;;
29314;SDS011;16320;53.954;9.506;2023-05-31T17:36:34;11.27;;;2.90;;
29314;SDS011;16320;53.954;9.506;2023-05-31T17:39:38;10.88;;;2.50;;
29314;SDS011;16320;53.954;9.506;2023-05-31T17:42:42;15.75;;;3.08;;
29314;SDS011;16320;53.954;9.506;2023-05-31T17:45:49;11.98;;;3.13;;
29314;SDS011;16320;53.954;9.506;2023-05-31T17:48:54;9.13;;;3.42;;
29314;SDS011;16320;53.954;9.506;2023-05-31T17:52:00;13.27;;;3.55;;
29314;SDS011;16320;53.954;9.506;2023-05-31T17:55:06;11.90;;;3.45;;
29314;SDS011;16320;53.954;9.506;2023-05-31T17:58:12;13.88;;;3.65;;
29314;SDS011;16320;53.954;9.506;2023-05-31T18:01:17;10.43;;;3.33;;
29314;SDS011;16320;53.954;9.506;2023-05-31T18:04:22;9.30;;;2.85;;
29314;SDS011;16320;53.954;9.506;2023-05-31T18:07:26;15.77;;;3.90;;
29314;SDS011;16320;53.954;9.506;2023-05-31T18:10:33;11.82;;;4.20;;
29314;SDS011;16320;53.954;9.506;2023-05-31T18:13:38;14.43;;;3.92;;
29314;SDS011;16320;53.954;9.506;2023-05-31T18:16:43;15.65;;;3.90;;
29314;SDS011;16320;53.954;9.506;2023-05-31T18:19:47;23.15;;;4.10;;
29314;SDS011;16320;53.954;9.506;2023-05-31T18:22:52;12.35;;;3.33;;
29314;SDS011;16320;53.954;9.506;2023-05-31T18:25:56;11.07;;;3.40;;
29314;SDS011;16320;53.954;9.506;2023-05-31T18:32:22;16.38;;;4.57;;
29314;SDS011;16320;53.954;9.506;2023-05-31T18:35:27;15.52;;;3.78;;
29314;SDS011;16320;53.954;9.506;2023-05-31T18:38:31;13.63;;;4.20;;
29314;SDS011;16320;53.954;9.506;2023-05-31T18:41:48;12.18;;;3.70;;
29314;SDS011;16320;53.954;9.506;2023-05-31T18:44:53;13.98;;;3.40;;
29314;SDS011;16320;53.954;9.506;2023-05-31T18:47:58;14.43;;;4.43;;
29314;SDS011;16320;53.954;9.506;2023-05-31T18:51:03;14.57;;;4.40;;
29314;SDS011;16320;53.954;9.506;2023-05-31T18:54:11;13.95;;;3.42;;
29314;SDS011;16320;53.954;9.506;2023-05-31T18:57:16;14.02;;;3.95;;
29314;SDS011;16320;53.954;9.506;2023-05-31T19:00:21;12.95;;;4.00;;
29314;SDS011;16320;53.954;9.506;2023-05-31T19:03:28;14.20;;;3.80;;
29314;SDS011;16320;53.954;9.506;2023-05-31T19:06:32;12.25;;;4.40;;
29314;SDS011;16320;53.954;9.506;2023-05-31T19:09:38;12.70;;;4.18;;
29314;SDS011;16320;53.954;9.506;2023-05-31T19:12:45;11.73;;;4.18;;
29314;SDS011;16320;53.954;9.506;2023-05-31T19:15:49;13.70;;;4.40;;
29314;SDS011;16320;53.954;9.506;2023-05-31T19:18:54;16.23;;;4.32;;
29314;SDS011;16320;53.954;9.506;2023-05-31T19:21:59;17.08;;;4.70;;
29314;SDS011;16320;53.954;9.506;2023-05-31T19:25:04;12.57;;;3.85;;
29314;SDS011;16320;53.954;9.506;2023-05-31T19:28:09;16.45;;;4.22;;
29314;SDS011;16320;53.954;9.506;2023-05-31T19:31:14;19.70;;;5.43;;
29314;SDS011;16320;53.954;9.506;2023-05-31T19:34:19;14.77;;;4.00;;
29314;SDS011;16320;53.954;9.506;2023-05-31T19:37:23;11.93;;;4.22;;